LiveATC.Net - Listen to live air traffic control over the Internet!


ICAO: KALB  IATA: ALB   Airport: Albany International Airport
City: Albany   State/Province: New York
Country: United States   Continent: North America
KALB METAR Weather: KALB 170451Z 00000KT 10SM SCT260 22/19 A3008 RMK AO2 SLP182 T02220194 403110206
KALB Flight Activity (FlightAware)
KALB Airport Info   (AirNav) (iFlightPlanner)
KALB VFR Sectional Chart   (iFlightPlanner) 
KALB IFR Low Chart   (iFlightPlanner) 

KALB Gnd/Twr/Approach
Feed Status: DOWN
Last heard on: 2018-07-29 20:42:03 (18 days 9 hours 16 minutes ago)
KALB Gnd/Twr/Approach Audio Archives
FacilityFrequency
Albany Approach/Departure118.050
Albany Approach/Departure127.150
Albany Approach/Departure132.825
Albany Ground121.700
Albany Tower119.500

NOTICE

Unauthorized use prohibited. See LiveATC.net Terms of Service


Find LiveATC Audio Streams


Airport/ARTCC Code

Frequency Search
(e.g., 124.400, 128.75)
Site-wide search
 


Browse LiveATC Feeds
Top 50 LiveATC Feeds
Bad Weather Areas

LiveATC FAQ
Offer a LiveATC Feed
Contact LiveATC.net
Press Inquiries

LiveATC on iPhone
LiveATC on Android

Windows Phone
Windows 8/10

LiveATC Mobile
(Mobile browser)

ATC Audio Archives
Interesting Recordings

LiveATC Forums


Home Page
About LiveATC.net
Make a Donation
Terms of Use
Privacy Policy

Canadian Air Freqs

AIRMETs/SIGMETs

FAA Airport Status
Nat'l Airspace Status
Arrival Demand Charts


Server Software By:
Icecast.org
Liquidsoap